createdAt,value
2023-03-22T00:02:56.462Z,13.23
2023-03-22T00:05:58.526Z,13.82
2023-03-22T00:09:00.215Z,14.20
2023-03-22T00:12:01.931Z,16.13
2023-03-22T00:15:08.063Z,15.15
2023-03-22T00:18:12.635Z,16.20
2023-03-22T00:21:15.664Z,18.20
2023-03-22T00:24:17.389Z,17.80
2023-03-22T00:27:19.097Z,19.83
2023-03-22T00:30:20.870Z,16.30
2023-03-22T00:33:22.696Z,17.30
2023-03-22T00:36:24.442Z,18.77
2023-03-22T00:39:27.105Z,16.95
2023-03-22T00:42:31.627Z,20.07
2023-03-22T00:45:33.280Z,17.15
2023-03-22T00:48:35.018Z,18.73
2023-03-22T00:51:36.733Z,18.67
2023-03-22T00:54:38.514Z,17.48
2023-03-22T00:57:40.393Z,18.50
2023-03-22T01:00:42.591Z,19.88
2023-03-22T01:03:44.519Z,18.48
2023-03-22T01:06:47.353Z,19.65
2023-03-22T01:09:49.122Z,20.23
2023-03-22T01:12:51.768Z,20.63
2023-03-22T01:15:53.437Z,17.77
2023-03-22T01:18:55.161Z,18.77
2023-03-22T01:21:57.705Z,20.95
2023-03-22T01:24:59.367Z,19.67
2023-03-22T01:28:02.859Z,24.50
2023-03-22T01:31:04.797Z,21.27
2023-03-22T01:34:06.564Z,20.77
2023-03-22T01:37:08.259Z,18.33
2023-03-22T01:40:11.737Z,20.40
2023-03-22T01:43:14.541Z,21.70
2023-03-22T01:46:16.323Z,20.17
2023-03-22T01:49:29.291Z,20.75
2023-03-22T01:52:31.010Z,20.50
2023-03-22T01:55:33.439Z,22.20
2023-03-22T01:58:36.347Z,23.87
2023-03-22T02:01:38.148Z,20.20
2023-03-22T02:04:40.453Z,22.05
2023-03-22T02:07:43.104Z,24.92
2023-03-22T02:10:44.813Z,24.47
2023-03-22T02:13:52.754Z,20.87
2023-03-22T02:17:22.217Z,21.83
2023-03-22T02:21:02.761Z,20.45
2023-03-22T02:24:25.391Z,24.80
2023-03-22T02:27:54.784Z,22.33
2023-03-22T02:31:12.646Z,21.75
2023-03-22T02:34:59.094Z,23.20
2023-03-22T02:38:12.656Z,19.02
2023-03-22T02:41:14.427Z,24.65
2023-03-22T02:44:44.040Z,20.37
2023-03-22T02:47:54.054Z,22.67
2023-03-22T02:50:57.423Z,19.55
2023-03-22T02:54:09.857Z,19.80
2023-03-22T02:57:36.908Z,21.37
2023-03-22T03:00:39.075Z,20.30
2023-03-22T03:03:41.056Z,19.95
2023-03-22T03:06:46.275Z,19.45
2023-03-22T03:09:48.034Z,19.20
2023-03-22T03:12:49.737Z,17.27
2023-03-22T03:15:52.865Z,18.83
2023-03-22T03:19:00.090Z,18.63
2023-03-22T03:22:08.031Z,20.92
2023-03-22T03:25:18.689Z,20.97
2023-03-22T03:28:30.393Z,18.50
2023-03-22T03:31:37.843Z,18.63
2023-03-22T03:34:57.197Z,19.55
2023-03-22T03:38:01.601Z,20.15
2023-03-22T03:41:20.450Z,20.23
2023-03-22T03:44:22.226Z,17.92
2023-03-22T03:47:24.309Z,19.50
2023-03-22T03:50:26.435Z,19.00
2023-03-22T03:53:28.757Z,21.80
2023-03-22T03:56:30.502Z,19.77
2023-03-22T03:59:32.240Z,20.73
2023-03-22T04:02:37.871Z,20.35
2023-03-22T04:05:39.613Z,21.63
2023-03-22T04:08:41.548Z,20.37
2023-03-22T04:11:43.311Z,20.10
2023-03-22T04:14:45.092Z,19.65
2023-03-22T04:17:50.976Z,20.85
2023-03-22T04:20:53.786Z,19.93
2023-03-22T04:23:55.813Z,20.88
2023-03-22T04:26:57.625Z,21.60
2023-03-22T04:30:01.115Z,23.27
2023-03-22T04:33:08.792Z,21.67
2023-03-22T04:36:11.044Z,24.10
2023-03-22T04:39:12.716Z,23.88
2023-03-22T04:42:14.407Z,22.13
2023-03-22T04:45:16.155Z,19.55
2023-03-22T04:48:20.636Z,20.77
2023-03-22T04:51:22.618Z,20.80
2023-03-22T04:54:24.345Z,18.33
2023-03-22T04:57:26.178Z,20.83
2023-03-22T05:00:30.323Z,21.95
2023-03-22T05:03:32.268Z,22.67
2023-03-22T05:06:34.390Z,20.97
2023-03-22T05:09:36.299Z,22.05
2023-03-22T05:12:37.981Z,20.25
2023-03-22T05:15:39.786Z,20.38
2023-03-22T05:18:49.031Z,22.83
2023-03-22T05:21:58.107Z,23.15
2023-03-22T05:25:00.059Z,23.70
2023-03-22T05:28:02.243Z,25.08
2023-03-22T05:31:04.762Z,19.58
2023-03-22T05:34:06.528Z,19.67
2023-03-22T05:37:08.248Z,24.15
2023-03-22T05:40:10.234Z,21.10
2023-03-22T05:43:12.258Z,23.20
2023-03-22T05:46:13.991Z,21.88
2023-03-22T05:49:15.801Z,20.60
2023-03-22T05:52:17.557Z,22.20
2023-03-22T05:55:19.616Z,21.23
2023-03-22T05:58:21.272Z,21.48
2023-03-22T06:01:23.297Z,20.55
2023-03-22T06:04:25.050Z,21.27
2023-03-22T06:07:27.196Z,20.67
2023-03-22T06:10:29.028Z,21.13
2023-03-22T06:13:31.071Z,19.75
2023-03-22T06:16:32.854Z,19.45
2023-03-22T06:19:34.695Z,18.73
2023-03-22T06:22:36.477Z,19.05
2023-03-22T06:25:38.233Z,19.70
2023-03-22T06:28:39.954Z,19.45
2023-03-22T06:31:41.649Z,19.77
2023-03-22T06:34:44.128Z,19.27
2023-03-22T06:37:45.879Z,19.33
2023-03-22T06:40:47.584Z,20.23
2023-03-22T06:43:49.283Z,17.73
2023-03-22T06:46:51.335Z,19.85
2023-03-22T06:49:53.267Z,17.83
2023-03-22T06:52:55.422Z,21.77
2023-03-22T06:55:57.191Z,19.00
2023-03-22T06:58:58.877Z,19.33
2023-03-22T07:02:00.730Z,19.80
2023-03-22T07:05:02.399Z,19.77
2023-03-22T07:08:04.139Z,19.48
2023-03-22T07:11:06.284Z,19.48
2023-03-22T07:14:08.140Z,19.95
2023-03-22T07:17:09.934Z,19.77
2023-03-22T07:20:11.798Z,19.47
2023-03-22T07:23:13.744Z,19.40
2023-03-22T07:26:15.647Z,18.40
2023-03-22T07:29:17.435Z,19.67
2023-03-22T07:32:19.182Z,20.58
2023-03-22T07:35:21.206Z,19.80
2023-03-22T07:38:23.208Z,17.17
2023-03-22T07:41:25.939Z,19.52
2023-03-22T07:44:28.288Z,19.38
2023-03-22T07:47:40.450Z,17.75
2023-03-22T07:50:43.193Z,16.97
2023-03-22T07:53:44.939Z,16.85
2023-03-22T07:56:48.163Z,19.98
2023-03-22T07:59:49.943Z,19.80
2023-03-22T08:02:51.625Z,21.95
2023-03-22T08:05:53.640Z,20.23
2023-03-22T08:08:55.658Z,18.77
2023-03-22T08:11:57.371Z,19.90
2023-03-22T08:14:59.647Z,17.80
2023-03-22T08:18:01.510Z,18.33
2023-03-22T08:21:03.474Z,17.33
2023-03-22T08:24:05.456Z,17.90
2023-03-22T08:27:07.343Z,18.80
2023-03-22T08:30:09.974Z,19.13
2023-03-22T08:33:11.726Z,17.35
2023-03-22T08:36:15.294Z,17.60
2023-03-22T08:39:17.171Z,19.15
2023-03-22T08:42:19.030Z,18.02
2023-03-22T08:45:20.924Z,19.80
2023-03-22T08:48:22.711Z,17.67
2023-03-22T08:51:24.547Z,18.07
2023-03-22T08:54:28.234Z,20.08
2023-03-22T08:57:29.982Z,18.38
2023-03-22T09:00:45.774Z,22.23
2023-03-22T09:03:49.371Z,23.95
2023-03-22T09:06:51.190Z,21.07
2023-03-22T09:09:52.930Z,19.27
2023-03-22T09:12:55.085Z,18.25
2023-03-22T09:15:57.521Z,21.42
2023-03-22T09:18:59.264Z,19.98
2023-03-22T09:22:01.321Z,19.47
2023-03-22T09:25:03.999Z,19.83
2023-03-22T09:28:06.092Z,19.48
2023-03-22T09:31:09.613Z,21.25
2023-03-22T09:34:11.445Z,22.40
2023-03-22T09:37:13.300Z,24.57
2023-03-22T09:40:15.926Z,24.83
2023-03-22T09:43:17.690Z,31.05
2023-03-22T09:46:41.070Z,33.70
2023-03-22T09:49:52.913Z,42.50
2023-03-22T09:52:54.973Z,41.27
2023-03-22T09:56:18.093Z,35.38
2023-03-22T09:59:25.806Z,41.25
2023-03-22T10:02:39.456Z,47.08
2023-03-22T10:05:49.537Z,44.90
2023-03-22T10:08:57.234Z,50.43
2023-03-22T10:12:05.789Z,53.78
2023-03-22T10:15:34.519Z,55.33
2023-03-22T10:18:41.812Z,43.72
2023-03-22T10:21:44.122Z,44.25
2023-03-22T10:24:46.525Z,41.50
2023-03-22T10:27:49.461Z,22.38
2023-03-22T10:30:54.657Z,21.25
2023-03-22T10:33:59.338Z,21.10
2023-03-22T10:37:01.889Z,19.58
2023-03-22T10:40:08.025Z,16.33
2023-03-22T10:43:24.040Z,23.35
2023-03-22T10:46:26.776Z,29.13
2023-03-22T10:49:44.031Z,20.45
2023-03-22T10:53:07.699Z,17.98
2023-03-22T10:56:13.089Z,16.13
2023-03-22T10:59:44.826Z,17.48
2023-03-22T11:02:53.760Z,18.45
2023-03-22T11:06:09.462Z,20.00
2023-03-22T11:09:13.200Z,23.35
2023-03-22T11:12:14.938Z,22.20
2023-03-22T11:15:25.680Z,22.48
2023-03-22T11:18:31.261Z,23.23
2023-03-22T11:21:33.526Z,23.20
2023-03-22T11:24:35.468Z,21.58
2023-03-22T11:27:37.349Z,23.33
2023-03-22T11:30:39.646Z,22.83
2023-03-22T11:33:53.404Z,20.08
2023-03-22T11:36:57.221Z,16.25
2023-03-22T11:40:03.390Z,18.27
2023-03-22T11:43:15.796Z,18.83
2023-03-22T11:46:19.506Z,16.38
2023-03-22T11:49:22.685Z,13.88
2023-03-22T11:52:27.465Z,13.95
2023-03-22T11:55:31.572Z,14.88
2023-03-22T11:58:42.342Z,15.03
2023-03-22T12:02:07.944Z,14.43
2023-03-22T12:05:18.725Z,14.00
2023-03-22T12:08:48.572Z,12.63
2023-03-22T12:11:51.983Z,13.55
2023-03-22T12:15:15.954Z,12.87
2023-03-22T12:18:27.092Z,10.35
2023-03-22T12:21:28.920Z,10.20
2023-03-22T12:24:31.769Z,9.70
2023-03-22T12:27:35.138Z,10.70
2023-03-22T12:30:43.184Z,8.97
2023-03-22T12:33:47.589Z,9.40
2023-03-22T12:36:56.543Z,9.07
2023-03-22T12:40:38.046Z,9.93
2023-03-22T12:43:57.015Z,9.68
2023-03-22T12:47:23.415Z,10.30
2023-03-22T12:50:29.518Z,9.93
2023-03-22T12:53:42.594Z,7.32
2023-03-22T12:56:45.570Z,5.65
2023-03-22T12:59:49.788Z,7.28
2023-03-22T13:03:10.541Z,6.83
2023-03-22T13:06:41.566Z,5.65
2023-03-22T13:09:44.913Z,7.22
2023-03-22T13:13:19.057Z,7.07
2023-03-22T13:16:23.029Z,6.32
2023-03-22T13:19:30.346Z,6.33
2023-03-22T13:22:38.344Z,7.05
2023-03-22T13:25:40.523Z,7.60
2023-03-22T13:28:42.488Z,5.65
2023-03-22T13:31:51.202Z,5.88
2023-03-22T13:34:53.086Z,6.20
2023-03-22T13:38:01.743Z,6.25
2023-03-22T13:41:16.662Z,5.82
2023-03-22T13:44:31.670Z,5.90
2023-03-22T13:47:43.766Z,6.80
2023-03-22T13:50:45.893Z,6.17
2023-03-22T13:53:56.540Z,6.13
2023-03-22T13:57:01.059Z,6.35
2023-03-22T14:00:25.163Z,6.72
2023-03-22T14:03:29.750Z,6.32
2023-03-22T14:06:33.861Z,6.97
2023-03-22T14:09:55.954Z,8.00
2023-03-22T14:13:18.061Z,6.93
2023-03-22T14:16:42.342Z,8.10
2023-03-22T14:19:44.146Z,8.63
